Time,TemperatureF,DewpointF,PressureIn,WindDirection,WindDirectionDegrees,WindSpeedMPH,WindSpeedGustMPH,Humidity,HourlyPrecipIn,Conditions,Clouds,dailyrainin,SoftwareType,DateUTC
2013-04-15 00:00:00,49.8,22.6,29.47,South,176,2.0,2.0,34,0.00,,OVC100,0.00,VWS V14.01,2013-04-15 06:00:00,
2013-04-15 00:05:00,50.3,22.3,29.47,SSW,197,3.0,3.0,33,0.00,,OVC100,0.00,VWS V14.01,2013-04-15 06:05:00,
2013-04-15 00:10:00,50.7,21.9,29.47,South,174,2.0,4.0,32,0.00,,OVC100,0.00,VWS V14.01,2013-04-15 06:10:00,
2013-04-15 00:15:00,51.3,22.5,29.47,SW,219,1.0,6.0,32,0.00,,OVC100,0.00,VWS V14.01,2013-04-15 06:15:00,
2013-04-15 00:20:00,51.2,22.4,29.47,South,174,1.0,6.0,32,0.00,,OVC100,0.00,VWS V14.01,2013-04-15 06:20:00,
2013-04-15 00:25:00,51.0,22.2,29.47,WSW,248,0.0,6.0,32,0.00,,OVC100,0.00,VWS V14.01,2013-04-15 06:25:00,
2013-04-15 00:30:00,51.0,22.2,29.48,SW,225,7.0,7.0,32,0.00,,OVC100,0.00,VWS V14.01,2013-04-15 06:30:00,
2013-04-15 00:35:00,51.4,21.8,29.48,West,270,2.0,7.0,31,0.00,,OVC100,0.00,VWS V14.01,2013-04-15 06:35:00,
2013-04-15 00:41:00,51.3,22.5,29.48,SW,217,3.0,7.0,32,0.00,,OVC100,0.00,VWS V14.01,2013-04-15 06:41:00,
2013-04-15 00:46:00,50.8,22.0,29.48,SW,233,8.0,8.0,32,0.00,,OVC100,0.00,VWS V14.01,2013-04-15 06:46:00,
2013-04-15 00:51:00,51.3,22.5,29.48,WSW,244,4.0,9.0,32,0.00,,OVC100,0.00,VWS V14.01,2013-04-15 06:51:00,
2013-04-15 00:57:00,51.7,22.1,29.48,West,269,9.0,13.0,31,0.00,,OVC100,0.00,VWS V14.01,2013-04-15 06:57:00,
2013-04-15 01:00:00,51.7,22.1,29.48,SW,219,5.0,13.0,31,0.00,,CLR,0.00,VWS V14.01,2013-04-15 07:00:00,
2013-04-15 01:02:00,51.8,22.1,29.49,WNW,283,12.0,15.0,31,0.00,,OVC100,0.00,VWS V14.01,2013-04-15 07:02:00,
2013-04-15 01:30:00,50.4,21.7,29.49,SW,235,3.0,15.0,32,0.00,,CLR,0.00,VWS V14.01,2013-04-15 07:30:00,
2013-04-15 01:41:00,49.4,21.5,29.49,SW,218,0.0,7.0,33,0.00,,OVC090,0.00,VWS V14.01,2013-04-15 07:41:00,
2013-04-15 01:42:00,49.3,21.4,29.49,SSW,200,0.0,7.0,33,0.00,,OVC090,0.00,VWS V14.01,2013-04-15 07:42:00,
2013-04-15 01:48:00,48.3,21.2,29.49,ESE,120,2.0,7.0,34,0.00,,OVC090,0.00,VWS V14.01,2013-04-15 07:48:00,
2013-04-15 01:49:00,48.1,21.1,29.49,ESE,118,2.0,7.0,34,0.00,,OVC090,0.00,VWS V14.01,2013-04-15 07:49:00,
2013-04-15 01:50:00,47.9,21.6,29.49,ESE,123,2.0,7.0,35,0.00,,OVC090,0.00,VWS V14.01,2013-04-15 07:50:00,
2013-04-15 01:55:00,46.6,21.1,29.49,ESE,118,2.0,7.0,36,0.00,,OVC090,0.00,VWS V14.01,2013-04-15 07:55:00,
2013-04-15 02:00:00,45.7,21.6,29.49,ESE,122,4.0,5.0,38,0.00,,OVC090,0.00,VWS V14.01,2013-04-15 08:00:00,
2013-04-15 02:05:00,45.0,21.5,29.50,SE,127,4.0,5.0,39,0.00,,OVC100,0.00,VWS V14.01,2013-04-15 08:05:00,
2013-04-15 02:10:00,44.5,21.7,29.49,ESE,120,3.0,5.0,40,0.00,,OVC100,0.00,VWS V14.01,2013-04-15 08:10:00,
2013-04-15 02:16:00,45.5,22.0,29.50,SSE,148,4.0,5.0,39,0.00,,OVC100,0.00,VWS V14.01,2013-04-15 08:16:00,
2013-04-15 02:22:00,46.5,21.6,29.50,SE,138,6.0,7.0,37,0.00,,OVC100,0.00,VWS V14.01,2013-04-15 08:22:00,
2013-04-15 02:27:00,47.2,21.6,29.50,WSW,246,4.0,9.0,36,0.00,,OVC100,0.00,VWS V14.01,2013-04-15 08:27:00,
2013-04-15 02:30:00,47.0,21.5,29.50,WSW,250,0.0,9.0,36,0.00,,CLR,0.00,VWS V14.01,2013-04-15 08:30:00,
2013-04-15 02:33:00,46.5,21.6,29.50,SE,136,1.0,2.0,37,0.00,,BKN100,0.00,VWS V14.01,2013-04-15 08:33:00,
2013-04-15 02:40:00,46.5,21.6,29.50,SE,139,4.0,7.0,37,0.00,,BKN100,0.00,VWS V14.01,2013-04-15 08:40:00,
2013-04-15 02:42:00,46.4,21.6,29.50,SE,141,3.0,7.0,37,0.00,,BKN100,0.00,VWS V14.01,2013-04-15 08:42:00,
2013-04-15 02:47:00,46.1,21.9,29.50,ESE,120,4.0,7.0,38,0.00,,FEW100,0.00,VWS V14.01,2013-04-15 08:47:00,
2013-04-15 02:50:00,46.2,22.0,29.50,South,181,3.0,7.0,38,0.00,,FEW100,0.00,VWS V14.01,2013-04-15 08:50:00,
2013-04-15 02:55:00,46.1,21.9,29.51,SSE,150,4.0,7.0,38,0.00,,FEW100,0.00,VWS V14.01,2013-04-15 08:55:00,
2013-04-15 03:00:00,45.9,21.7,29.51,ESE,122,6.0,8.0,38,0.00,,SCT090,0.00,VWS V14.01,2013-04-15 09:00:00,
2013-04-15 03:05:00,45.7,21.6,29.51,SSE,148,5.0,8.0,38,0.00,,SCT090,0.00,VWS V14.01,2013-04-15 09:05:00,
2013-04-15 03:11:00,45.7,21.6,29.50,SE,138,4.0,8.0,38,0.00,,SCT090,0.00,VWS V14.01,2013-04-15 09:11:00,
2013-04-15 03:16:00,46.0,21.8,29.51,SSE,159,4.0,8.0,38,0.00,,SCT090,0.00,VWS V14.01,2013-04-15 09:16:00,
2013-04-15 03:21:00,46.1,21.9,29.50,SSE,148,5.0,8.0,38,0.00,,SCT090,0.00,VWS V14.01,2013-04-15 09:21:00,
2013-04-15 03:26:00,46.0,21.8,29.51,SE,130,5.0,8.0,38,0.00,,SCT090,0.00,VWS V14.01,2013-04-15 09:26:00,
2013-04-15 03:30:00,45.8,22.3,29.51,South,170,4.0,9.0,39,0.00,,CLR,0.00,VWS V14.01,2013-04-15 09:30:00,
2013-04-15 03:31:00,45.7,22.2,29.51,SSE,154,4.0,6.0,39,0.00,,BKN090,0.00,VWS V14.01,2013-04-15 09:31:00,
2013-04-15 03:37:00,45.6,22.1,29.51,SE,138,6.0,9.0,39,0.00,,BKN090,0.00,VWS V14.01,2013-04-15 09:37:00,
2013-04-15 03:42:00,45.3,21.8,29.51,ESE,122,6.0,9.0,39,0.00,,BKN090,0.00,VWS V14.01,2013-04-15 09:42:00,
2013-04-15 03:47:00,45.5,22.0,29.51,SE,146,5.0,9.0,39,0.00,,FEW090,0.00,VWS V14.01,2013-04-15 09:47:00,
2013-04-15 03:52:00,45.5,22.0,29.51,SE,124,5.0,9.0,39,0.00,,FEW090,0.00,VWS V14.01,2013-04-15 09:52:00,
2013-04-15 03:57:00,45.2,21.7,29.51,SE,146,5.0,9.0,39,0.00,,FEW090,0.00,VWS V14.01,2013-04-15 09:57:00,
2013-04-15 04:00:00,45.2,21.7,29.51,SE,141,6.0,9.0,39,0.00,,CLR,0.00,VWS V14.01,2013-04-15 10:00:00,
2013-04-15 04:02:00,45.1,22.2,29.51,SE,146,3.0,7.0,40,0.00,,CLR,0.00,VWS V14.01,2013-04-15 10:02:00,
2013-04-15 04:07:00,45.5,22.0,29.51,SSE,149,5.0,12.0,39,0.00,,CLR,0.00,VWS V14.01,2013-04-15 10:07:00,
2013-04-15 04:12:00,45.8,21.6,29.51,SSW,204,5.0,12.0,38,0.00,,CLR,0.00,VWS V14.01,2013-04-15 10:12:00,
2013-04-15 04:17:00,46.4,21.6,29.51,SSE,156,4.0,12.0,37,0.00,,CLR,0.00,VWS V14.01,2013-04-15 10:17:00,
2013-04-15 04:22:00,46.4,21.6,29.51,SSW,200,5.0,12.0,37,0.00,,CLR,0.00,VWS V14.01,2013-04-15 10:22:00,
2013-04-15 04:27:00,46.5,21.6,29.51,South,171,3.0,12.0,37,0.00,,CLR,0.00,VWS V14.01,2013-04-15 10:27:00,
2013-04-15 04:30:00,46.4,21.6,29.51,SSE,152,1.0,12.0,37,0.00,,CLR,0.00,VWS V14.01,2013-04-15 10:30:00,
2013-04-15 04:32:00,46.3,21.5,29.51,South,169,2.0,5.0,37,0.00,,CLR,0.00,VWS V14.01,2013-04-15 10:32:00,
2013-04-15 04:37:00,46.2,21.4,29.50,South,183,4.0,8.0,37,0.00,,CLR,0.00,VWS V14.01,2013-04-15 10:37:00,
2013-04-15 04:43:00,46.1,21.3,29.51,SSW,200,0.0,8.0,37,0.00,,CLR,0.00,VWS V14.01,2013-04-15 10:43:00,
2013-04-15 04:48:00,45.3,21.2,29.51,North,4,0.0,8.0,38,0.00,,CLR,0.00,VWS V14.01,2013-04-15 10:48:00,
2013-04-15 04:53:00,43.4,20.7,29.51,ENE,69,2.0,8.0,40,0.00,,CLR,0.00,VWS V14.01,2013-04-15 10:53:00,
2013-04-15 04:58:00,42.2,20.8,29.51,NE,40,1.0,8.0,42,0.00,,CLR,0.00,VWS V14.01,2013-04-15 10:58:00,
2013-04-15 05:00:00,42.0,20.6,29.51,NE,50,3.0,8.0,42,0.00,,CLR,0.00,VWS V14.01,2013-04-15 11:00:00,
2013-04-15 05:03:00,41.9,21.0,29.51,ESE,110,3.0,4.0,43,0.00,,CLR,0.00,VWS V14.01,2013-04-15 11:03:00,
2013-04-15 05:08:00,41.4,21.1,29.51,East,91,2.0,4.0,44,0.00,,CLR,0.00,VWS V14.01,2013-04-15 11:08:00,
2013-04-15 05:13:00,41.9,21.0,29.52,East,88,1.0,4.0,43,0.00,,CLR,0.00,VWS V14.01,2013-04-15 11:13:00,
2013-04-15 05:18:00,40.8,20.6,29.52,ESE,113,2.0,4.0,44,0.00,,CLR,0.00,VWS V14.01,2013-04-15 11:18:00,
2013-04-15 05:24:00,40.6,20.9,29.52,ENE,76,4.0,6.0,45,0.00,,CLR,0.00,VWS V14.01,2013-04-15 11:24:00,
2013-04-15 05:29:00,41.0,21.3,29.52,East,99,4.0,7.0,45,0.00,,CLR,0.00,VWS V14.01,2013-04-15 11:29:00,
2013-04-15 05:30:00,41.0,21.3,29.52,ESE,104,3.0,7.0,45,0.00,,CLR,0.00,VWS V14.01,2013-04-15 11:30:00,
2013-04-15 05:34:00,40.9,20.7,29.52,ESE,113,6.0,6.0,44,0.00,,CLR,0.00,VWS V14.01,2013-04-15 11:34:00,
2013-04-15 05:39:00,40.3,20.7,29.53,East,93,6.0,6.0,45,0.00,,CLR,0.00,VWS V14.01,2013-04-15 11:39:00,
2013-04-15 05:44:00,40.5,20.9,29.53,East,80,3.0,6.0,45,0.00,,CLR,0.00,VWS V14.01,2013-04-15 11:44:00,
2013-04-15 05:49:00,40.7,21.0,29.53,ESE,103,4.0,6.0,45,0.00,,CLR,0.00,VWS V14.01,2013-04-15 11:49:00,
2013-04-15 05:55:00,40.8,20.6,29.53,ESE,116,4.0,6.0,44,0.00,,CLR,0.00,VWS V14.01,2013-04-15 11:55:00,
2013-04-15 06:00:00,40.7,21.0,29.53,East,92,5.0,6.0,45,0.00,,CLR,0.00,VWS V14.01,2013-04-15 12:00:00,
2013-04-15 06:01:00,40.6,20.9,29.53,ESE,115,5.0,6.0,45,0.00,,CLR,0.00,VWS V14.01,2013-04-15 12:01:00,
2013-04-15 06:06:00,40.1,21.0,29.53,East,93,2.0,6.0,46,0.00,,CLR,0.00,VWS V14.01,2013-04-15 12:06:00,
2013-04-15 06:14:00,41.3,21.0,29.54,East,98,4.0,5.0,44,0.00,,CLR,0.00,VWS V14.01,2013-04-15 12:14:00,
2013-04-15 06:19:00,40.8,20.6,29.54,South,180,5.0,7.0,44,0.00,,CLR,0.00,VWS V14.01,2013-04-15 12:19:00,
2013-04-15 06:25:00,42.0,21.1,29.54,ESE,123,5.0,9.0,43,0.00,,CLR,0.00,VWS V14.01,2013-04-15 12:25:00,
2013-04-15 06:30:00,41.4,20.6,29.54,East,98,4.0,6.0,43,0.00,,CLR,0.00,VWS V14.01,2013-04-15 12:30:00,
2013-04-15 06:35:00,41.2,21.0,29.54,ESE,103,4.0,8.0,44,0.00,,CLR,0.00,VWS V14.01,2013-04-15 12:35:00,
2013-04-15 06:40:00,40.6,20.4,29.55,SE,139,2.0,8.0,44,0.00,,CLR,0.00,VWS V14.01,2013-04-15 12:40:00,
2013-04-15 06:45:00,41.4,20.6,29.55,ESE,115,2.0,8.0,43,0.00,,CLR,0.00,VWS V14.01,2013-04-15 12:45:00,
2013-04-15 06:50:00,41.1,20.3,29.55,ESE,107,4.0,8.0,43,0.00,,CLR,0.00,VWS V14.01,2013-04-15 12:50:00,
2013-04-15 06:55:00,40.6,20.4,29.55,East,100,5.0,8.0,44,0.00,,CLR,0.00,VWS V14.01,2013-04-15 12:55:00,
2013-04-15 07:00:00,40.3,20.7,29.55,ESE,120,1.0,8.0,45,0.00,,CLR,0.00,VWS V14.01,2013-04-15 13:00:00,
2013-04-15 07:01:00,40.2,20.6,29.55,SE,146,3.0,3.0,45,0.00,,CLR,0.00,VWS V14.01,2013-04-15 13:01:00,
2013-04-15 07:06:00,41.0,20.8,29.55,SE,138,3.0,5.0,44,0.00,,CLR,0.00,VWS V14.01,2013-04-15 13:06:00,
2013-04-15 07:12:00,42.7,20.7,29.55,SE,125,3.0,5.0,41,0.00,,CLR,0.00,VWS V14.01,2013-04-15 13:12:00,
2013-04-15 07:17:00,43.8,21.1,29.55,SE,129,4.0,5.0,40,0.00,,CLR,0.00,VWS V14.01,2013-04-15 13:17:00,
2013-04-15 07:22:00,44.5,21.1,29.55,ESE,118,2.0,5.0,39,0.00,,CLR,0.00,VWS V14.01,2013-04-15 13:22:00,
2013-04-15 07:27:00,45.5,21.4,29.55,South,177,1.0,5.0,38,0.00,,CLR,0.00,VWS V14.01,2013-04-15 13:27:00,
2013-04-15 07:30:00,46.0,21.2,29.55,ESE,120,1.0,5.0,37,0.00,,CLR,0.00,VWS V14.01,2013-04-15 13:30:00,
2013-04-15 07:32:00,46.9,21.4,29.55,SSE,165,2.0,3.0,36,0.00,,CLR,0.00,VWS V14.01,2013-04-15 13:32:00,
2013-04-15 07:38:00,48.1,21.8,29.55,SSW,207,1.0,3.0,35,0.00,,CLR,0.00,VWS V14.01,2013-04-15 13:38:00,
2013-04-15 07:43:00,48.5,21.4,29.55,WSW,248,1.0,3.0,34,0.00,,CLR,0.00,VWS V14.01,2013-04-15 13:43:00,
2013-04-15 07:48:00,48.6,21.5,29.55,SSW,199,2.0,4.0,34,0.00,,CLR,0.00,VWS V14.01,2013-04-15 13:48:00,
2013-04-15 07:53:00,49.5,21.6,29.55,South,176,4.0,7.0,33,0.00,,CLR,0.00,VWS V14.01,2013-04-15 13:53:00,
2013-04-15 07:58:00,49.8,21.9,29.55,SSW,210,2.0,7.0,33,0.00,,CLR,0.00,VWS V14.01,2013-04-15 13:58:00,
2013-04-15 08:00:00,49.8,21.9,29.55,SW,218,3.0,7.0,33,0.00,,CLR,0.00,VWS V14.01,2013-04-15 14:00:00,
2013-04-15 08:04:00,50.0,21.3,29.55,SSE,150,1.0,4.0,32,0.00,,CLR,0.00,VWS V14.01,2013-04-15 14:04:00,
2013-04-15 08:09:00,50.1,21.4,29.55,West,264,1.0,7.0,32,0.00,,CLR,0.00,VWS V14.01,2013-04-15 14:09:00,
2013-04-15 08:14:00,50.2,22.2,29.55,NW,307,4.0,7.0,33,0.00,,CLR,0.00,VWS V14.01,2013-04-15 14:14:00,
2013-04-15 08:19:00,50.1,21.4,29.55,WSW,238,9.0,12.0,32,0.00,,CLR,0.00,VWS V14.01,2013-04-15 14:19:00,
2013-04-15 08:25:00,51.0,20.7,29.54,WSW,237,11.0,16.0,30,0.00,,CLR,0.00,VWS V14.01,2013-04-15 14:25:00,
2013-04-15 08:30:00,51.3,20.9,29.55,SSW,208,11.0,15.0,30,0.00,,CLR,0.00,VWS V14.01,2013-04-15 14:30:00,
2013-04-15 08:35:00,51.7,19.7,29.54,WSW,249,13.0,17.0,28,0.00,,CLR,0.00,VWS V14.01,2013-04-15 14:35:00,
2013-04-15 08:40:00,51.9,20.7,29.54,SW,218,14.0,19.0,29,0.00,,CLR,0.00,VWS V14.01,2013-04-15 14:40:00,
2013-04-15 08:45:00,51.8,20.6,29.55,SSW,197,10.0,26.0,29,0.00,,FEW080,0.00,VWS V14.01,2013-04-15 14:45:00,
2013-04-15 08:50:00,51.7,20.5,29.54,West,260,9.0,26.0,29,0.00,,FEW080,0.00,VWS V14.01,2013-04-15 14:50:00,
2013-04-15 08:57:00,52.0,20.8,29.54,WSW,249,17.0,26.0,29,0.00,,FEW080,0.00,VWS V14.01,2013-04-15 14:57:00,
2013-04-15 09:00:00,51.8,20.6,29.55,SW,231,12.0,26.0,29,0.00,,CLR,0.00,VWS V14.01,2013-04-15 15:00:00,
2013-04-15 09:02:00,51.4,20.2,29.54,WSW,245,8.0,21.0,29,0.00,,FEW080,0.00,VWS V14.01,2013-04-15 15:02:00,
2013-04-15 09:07:00,51.8,20.6,29.54,West,276,10.0,25.0,29,0.00,,FEW080,0.00,VWS V14.01,2013-04-15 15:07:00,
2013-04-15 09:12:00,51.9,20.7,29.54,South,179,17.0,25.0,29,0.00,,FEW080,0.00,VWS V14.01,2013-04-15 15:12:00,
2013-04-15 09:17:00,52.1,20.8,29.54,WSW,241,19.0,25.0,29,0.00,,FEW080,0.00,VWS V14.01,2013-04-15 15:17:00,
2013-04-15 09:22:00,52.4,21.1,29.54,WSW,256,12.0,25.0,29,0.00,,FEW080,0.00,VWS V14.01,2013-04-15 15:22:00,
2013-04-15 09:28:00,52.1,20.8,29.54,WSW,241,11.0,25.0,29,0.00,,FEW080,0.00,VWS V14.01,2013-04-15 15:28:00,
2013-04-15 09:30:00,51.9,20.7,29.54,WSW,250,14.0,25.0,29,0.00,,CLR,0.00,VWS V14.01,2013-04-15 15:30:00,
2013-04-15 09:33:00,52.0,20.8,29.54,SW,232,12.0,19.0,29,0.00,,CLR,0.00,VWS V14.01,2013-04-15 15:33:00,
2013-04-15 09:38:00,52.4,21.1,29.54,SSW,203,13.0,22.0,29,0.00,,CLR,0.00,VWS V14.01,2013-04-15 15:38:00,
2013-04-15 09:43:00,53.2,21.0,29.54,West,273,9.0,22.0,28,0.00,,CLR,0.00,VWS V14.01,2013-04-15 15:43:00,
2013-04-15 09:48:00,53.6,21.3,29.54,WSW,249,18.0,22.0,28,0.00,,CLR,0.00,VWS V14.01,2013-04-15 15:48:00,
2013-04-15 09:54:00,53.2,21.0,29.54,WNW,290,11.0,28.0,28,0.00,,CLR,0.00,VWS V14.01,2013-04-15 15:54:00,
2013-04-15 09:59:00,52.9,20.7,29.54,WSW,241,11.0,28.0,28,0.00,,CLR,0.00,VWS V14.01,2013-04-15 15:59:00,
2013-04-15 10:00:00,52.8,20.6,29.54,SW,233,13.0,28.0,28,0.00,,CLR,0.00,VWS V14.01,2013-04-15 16:00:00,
2013-04-15 10:04:00,53.4,21.1,29.54,WSW,253,14.0,22.0,28,0.00,,BKN070,0.00,VWS V14.01,2013-04-15 16:04:00,
2013-04-15 10:09:00,52.7,20.5,29.53,West,271,10.0,22.0,28,0.00,,BKN070,0.00,VWS V14.01,2013-04-15 16:09:00,
2013-04-15 10:15:00,51.8,20.6,29.53,WSW,252,13.0,22.0,29,0.00,,BKN070,0.00,VWS V14.01,2013-04-15 16:15:00,
2013-04-15 10:20:00,51.8,20.6,29.53,West,267,13.0,22.0,29,0.00,,BKN070,0.00,VWS V14.01,2013-04-15 16:20:00,
2013-04-15 10:25:00,52.0,20.8,29.53,SW,222,11.0,26.0,29,0.00,,BKN070,0.00,VWS V14.01,2013-04-15 16:25:00,
2013-04-15 10:30:00,53.0,21.6,29.54,SW,231,12.0,12.0,29,0.00,,BKN070,0.00,VWS V14.01,2013-04-15 16:30:00,
2013-04-15 10:35:00,54.2,21.8,29.53,SW,221,12.0,20.0,28,0.00,,OVC080,0.00,VWS V14.01,2013-04-15 16:35:00,
2013-04-15 10:41:00,54.5,21.2,29.53,WSW,257,9.0,20.0,27,0.00,,OVC080,0.00,VWS V14.01,2013-04-15 16:41:00,
2013-04-15 10:47:00,54.2,21.0,29.53,SSW,207,6.0,20.0,27,0.00,,OVC070,0.00,VWS V14.01,2013-04-15 16:47:00,
2013-04-15 10:52:00,54.7,21.4,29.52,West,270,7.0,20.0,27,0.00,,OVC070,0.00,VWS V14.01,2013-04-15 16:52:00,
2013-04-15 10:57:00,55.1,20.9,29.52,WSW,258,9.0,20.0,26,0.00,,OVC070,0.00,VWS V14.01,2013-04-15 16:57:00,
2013-04-15 11:00:00,55.3,21.9,29.52,SW,222,10.0,20.0,27,0.00,,CLR,0.00,VWS V14.01,2013-04-15 17:00:00,
2013-04-15 11:02:00,55.7,21.4,29.52,West,259,7.0,19.0,26,0.00,,BKN085,0.00,VWS V14.01,2013-04-15 17:02:00,
2013-04-15 11:07:00,56.0,20.7,29.51,WSW,248,18.0,19.0,25,0.00,,BKN085,0.00,VWS V14.01,2013-04-15 17:07:00,
2013-04-15 11:12:00,56.4,21.0,29.51,WSW,242,18.0,24.0,25,0.00,,BKN085,0.00,VWS V14.01,2013-04-15 17:12:00,
2013-04-15 11:18:00,56.5,21.1,29.51,WSW,250,6.0,24.0,25,0.00,,BKN085,0.00,VWS V14.01,2013-04-15 17:18:00,
2013-04-15 11:22:00,56.9,21.5,29.51,West,269,9.0,24.0,25,0.00,,BKN085,0.00,VWS V14.01,2013-04-15 17:22:00,
2013-04-15 11:23:00,57.0,21.5,29.51,SW,229,14.0,24.0,25,0.00,,BKN085,0.00,VWS V14.01,2013-04-15 17:23:00,
2013-04-15 11:26:00,57.6,21.1,29.51,WSW,257,18.0,24.0,24,0.00,,BKN085,0.00,VWS V14.01,2013-04-15 17:26:00,
2013-04-15 11:30:00,57.1,20.7,29.51,WSW,249,10.0,24.0,24,0.00,,CLR,0.00,VWS V14.01,2013-04-15 17:30:00,
2013-04-15 11:31:00,57.2,20.8,29.51,WSW,243,19.0,19.0,24,0.00,,BKN080,0.00,VWS V14.01,2013-04-15 17:31:00,
2013-04-15 11:34:00,57.3,19.8,29.51,WSW,245,7.0,23.0,23,0.00,,BKN080,0.00,VWS V14.01,2013-04-15 17:34:00,
2013-04-15 11:39:00,57.4,19.9,29.51,West,271,7.0,23.0,23,0.00,,BKN080,0.00,VWS V14.01,2013-04-15 17:39:00,
2013-04-15 11:45:00,57.6,21.1,29.50,SSW,203,11.0,23.0,24,0.00,,BKN080,0.00,VWS V14.01,2013-04-15 17:45:00,
2013-04-15 11:50:00,57.7,20.2,29.50,West,262,8.0,25.0,23,0.00,,BKN080,0.00,VWS V14.01,2013-04-15 17:50:00,
2013-04-15 11:55:00,58.0,21.4,29.50,SSW,207,19.0,25.0,24,0.00,,BKN080,0.00,VWS V14.01,2013-04-15 17:55:00,
2013-04-15 12:00:00,58.7,21.0,29.50,SW,218,14.0,18.0,23,0.00,,BKN080,0.00,VWS V14.01,2013-04-15 18:00:00,
2013-04-15 12:07:00,59.0,21.3,29.49,WSW,256,15.0,19.0,23,0.00,,BKN080,0.00,VWS V14.01,2013-04-15 18:07:00,
2013-04-15 12:12:00,59.0,20.2,29.49,WSW,257,13.0,21.0,22,0.00,,BKN080,0.00,VWS V14.01,2013-04-15 18:12:00,
2013-04-15 12:17:00,58.7,20.0,29.49,WSW,256,16.0,21.0,22,0.00,,BKN080,0.00,VWS V14.01,2013-04-15 18:17:00,
2013-04-15 12:22:00,58.1,20.5,29.48,WSW,238,3.0,24.0,23,0.00,,BKN080,0.00,VWS V14.01,2013-04-15 18:22:00,
2013-04-15 12:27:00,58.8,19.0,29.49,SW,236,11.0,24.0,21,0.00,,BKN080,0.00,VWS V14.01,2013-04-15 18:27:00,
2013-04-15 12:29:00,58.8,20.1,29.49,WSW,238,14.0,24.0,22,0.00,,BKN080,0.00,VWS V14.01,2013-04-15 18:29:00,
2013-04-15 12:30:00,58.8,20.1,29.49,WSW,238,14.0,24.0,22,0.00,,CLR,0.00,VWS V14.01,2013-04-15 18:30:00,
2013-04-15 12:32:00,59.5,20.6,29.48,WSW,245,13.0,20.0,22,0.00,,BKN080,0.00,VWS V14.01,2013-04-15 18:32:00,
2013-04-15 12:36:00,59.6,19.6,29.48,West,270,20.0,36.0,21,0.00,,BKN080,0.00,VWS V14.01,2013-04-15 18:36:00,
2013-04-15 12:38:00,59.5,19.6,29.48,WSW,249,15.0,36.0,21,0.00,,BKN080,0.00,VWS V14.01,2013-04-15 18:38:00,
2013-04-15 12:44:00,59.9,21.0,29.47,SSW,212,14.0,36.0,22,0.00,,BKN080,0.00,VWS V14.01,2013-04-15 18:44:00,
2013-04-15 12:49:00,60.0,20.0,29.47,West,264,11.0,36.0,21,0.00,,FEW080,0.00,VWS V14.01,2013-04-15 18:49:00,
2013-04-15 12:54:00,60.1,20.1,29.47,WSW,250,19.0,36.0,21,0.00,,FEW080,0.00,VWS V14.01,2013-04-15 18:54:00,
2013-04-15 12:59:00,60.5,20.4,29.47,WSW,249,8.0,36.0,21,0.00,,FEW080,0.00,VWS V14.01,2013-04-15 18:59:00,
2013-04-15 13:00:00,60.5,20.4,29.47,WSW,253,12.0,36.0,21,0.00,,CLR,0.00,VWS V14.01,2013-04-15 19:00:00,
2013-04-15 13:04:00,60.3,20.2,29.46,SW,217,15.0,26.0,21,0.00,,FEW080,0.00,VWS V14.01,2013-04-15 19:04:00,
2013-04-15 13:09:00,60.7,19.4,29.46,West,278,13.0,26.0,20,0.00,,FEW080,0.00,VWS V14.01,2013-04-15 19:09:00,
2013-04-15 13:14:00,60.6,19.3,29.46,West,259,11.0,26.0,20,0.00,,FEW080,0.00,VWS V14.01,2013-04-15 19:14:00,
2013-04-15 13:19:00,61.0,20.8,29.45,WNW,283,11.0,26.0,21,0.00,,FEW080,0.00,VWS V14.01,2013-04-15 19:19:00,
2013-04-15 13:24:00,60.7,19.4,29.45,WSW,251,15.0,26.0,20,0.00,,FEW080,0.00,VWS V14.01,2013-04-15 19:24:00,
2013-04-15 13:29:00,60.7,20.6,29.45,SW,228,17.0,19.0,21,0.00,,FEW080,0.00,VWS V14.01,2013-04-15 19:29:00,
2013-04-15 13:30:00,60.7,19.4,29.45,SW,219,19.0,26.0,20,0.00,,CLR,0.00,VWS V14.01,2013-04-15 19:30:00,
2013-04-15 13:36:00,61.1,19.8,29.44,WSW,242,15.0,22.0,20,0.00,,CLR,0.00,VWS V14.01,2013-04-15 19:36:00,
2013-04-15 13:42:00,61.3,18.7,29.45,WSW,249,11.0,22.0,19,0.00,,CLR,0.00,VWS V14.01,2013-04-15 19:42:00,
2013-04-15 13:47:00,61.9,19.2,29.45,WSW,253,17.0,24.0,19,0.00,,FEW090,0.00,VWS V14.01,2013-04-15 19:47:00,
2013-04-15 13:54:00,61.6,19.0,29.44,West,267,9.0,28.0,19,0.00,,FEW090,0.00,VWS V14.01,2013-04-15 19:54:00,
2013-04-15 13:59:00,61.8,20.3,29.43,WSW,239,15.0,28.0,20,0.00,,FEW090,0.00,VWS V14.01,2013-04-15 19:59:00,
2013-04-15 14:00:00,61.9,19.2,29.44,SW,226,13.0,25.0,19,0.00,,FEW090,0.00,VWS V14.01,2013-04-15 20:00:00,
2013-04-15 14:02:00,61.8,19.1,29.44,WSW,252,18.0,25.0,19,0.00,,FEW090,0.00,VWS V14.01,2013-04-15 20:02:00,
2013-04-15 14:03:00,61.8,19.1,29.44,SW,227,12.0,25.0,19,0.00,,FEW090,0.00,VWS V14.01,2013-04-15 20:03:00,
2013-04-15 14:06:00,62.3,19.5,29.44,WSW,249,8.0,25.0,19,0.00,,FEW090,0.00,VWS V14.01,2013-04-15 20:06:00,
2013-04-15 14:10:00,62.5,19.7,29.44,SW,219,15.0,27.0,19,0.00,,FEW090,0.00,VWS V14.01,2013-04-15 20:10:00,
2013-04-15 14:13:00,62.1,19.4,29.44,West,271,6.0,27.0,19,0.00,,FEW090,0.00,VWS V14.01,2013-04-15 20:13:00,
2013-04-15 14:18:00,62.0,19.3,29.44,WSW,250,16.0,27.0,19,0.00,,FEW090,0.00,VWS V14.01,2013-04-15 20:18:00,
2013-04-15 14:23:00,62.4,19.6,29.44,WSW,252,19.0,27.0,19,0.00,,FEW090,0.00,VWS V14.01,2013-04-15 20:23:00,
2013-04-15 14:28:00,62.7,18.6,29.45,WSW,257,23.0,27.0,18,0.00,,FEW090,0.00,VWS V14.01,2013-04-15 20:28:00,
2013-04-15 14:30:00,62.7,18.6,29.43,WSW,250,29.0,29.0,18,0.00,,CLR,0.00,VWS V14.01,2013-04-15 20:30:00,
2013-04-15 14:34:00,62.5,18.5,29.44,WSW,238,7.0,29.0,18,0.00,,FEW090,0.00,VWS V14.01,2013-04-15 20:34:00,
2013-04-15 14:39:00,63.1,17.6,29.44,SSW,207,20.0,31.0,17,0.00,,FEW090,0.00,VWS V14.01,2013-04-15 20:39:00,
2013-04-15 14:44:00,62.6,18.5,29.44,South,187,12.0,31.0,18,0.00,,FEW090,0.00,VWS V14.01,2013-04-15 20:44:00,
2013-04-15 14:49:00,63.4,17.9,29.44,SW,229,5.0,31.0,17,0.00,,CLR,0.00,VWS V14.01,2013-04-15 20:49:00,
2013-04-15 14:54:00,63.0,17.5,29.43,West,259,18.0,31.0,17,0.00,,CLR,0.00,VWS V14.01,2013-04-15 20:54:00,
2013-04-15 14:59:00,63.5,17.9,29.43,SW,221,13.0,31.0,17,0.00,,CLR,0.00,VWS V14.01,2013-04-15 20:59:00,
2013-04-15 15:00:00,63.4,17.9,29.43,WSW,243,11.0,31.0,17,0.00,,CLR,0.00,VWS V14.01,2013-04-15 21:00:00,
2013-04-15 15:04:00,63.7,18.1,29.42,WSW,251,12.0,17.0,17,0.00,,CLR,0.00,VWS V14.01,2013-04-15 21:04:00,
2013-04-15 15:09:00,63.7,16.7,29.42,WSW,253,16.0,30.0,16,0.00,,CLR,0.00,VWS V14.01,2013-04-15 21:09:00,
2013-04-15 15:14:00,64.1,17.0,29.42,SSW,208,13.0,30.0,16,0.00,,CLR,0.00,VWS V14.01,2013-04-15 21:14:00,
2013-04-15 15:19:00,64.3,17.2,29.42,WSW,245,7.0,30.0,16,0.00,,CLR,0.00,VWS V14.01,2013-04-15 21:19:00,
2013-04-15 15:24:00,64.4,17.3,29.42,WSW,244,16.0,30.0,16,0.00,,CLR,0.00,VWS V14.01,2013-04-15 21:24:00,
2013-04-15 15:29:00,64.9,17.7,29.41,SSW,195,18.0,18.0,16,0.00,,CLR,0.00,VWS V14.01,2013-04-15 21:29:00,
2013-04-15 15:30:00,64.8,17.6,29.41,West,260,13.0,30.0,16,0.00,,CLR,0.00,VWS V14.01,2013-04-15 21:30:00,
2013-04-15 15:34:00,64.7,17.5,29.41,WSW,250,10.0,22.0,16,0.00,,CLR,0.00,VWS V14.01,2013-04-15 21:34:00,
2013-04-15 15:40:00,65.0,16.3,29.41,SW,235,34.0,34.0,15,0.00,,CLR,0.00,VWS V14.01,2013-04-15 21:40:00,
2013-04-15 15:45:00,64.7,14.4,29.41,West,269,19.0,34.0,14,0.00,,CLR,0.00,VWS V14.01,2013-04-15 21:45:00,
2013-04-15 15:50:00,64.8,14.5,29.40,South,179,20.0,34.0,14,0.00,,CLR,0.00,VWS V14.01,2013-04-15 21:50:00,
2013-04-15 15:55:00,64.6,15.9,29.40,WSW,250,13.0,34.0,15,0.00,,CLR,0.00,VWS V14.01,2013-04-15 21:55:00,
2013-04-15 16:00:00,64.9,16.2,29.40,SSW,208,16.0,16.0,15,0.00,,CLR,0.00,VWS V14.01,2013-04-15 22:00:00,
2013-04-15 16:05:00,64.9,16.2,29.40,WSW,242,13.0,24.0,15,0.00,,FEW120,0.00,VWS V14.01,2013-04-15 22:05:00,
2013-04-15 16:10:00,65.4,16.6,29.40,SW,236,11.0,25.0,15,0.00,,FEW120,0.00,VWS V14.01,2013-04-15 22:10:00,
2013-04-15 16:15:00,65.5,16.7,29.40,WSW,243,17.0,26.0,15,0.00,,FEW120,0.00,VWS V14.01,2013-04-15 22:15:00,
2013-04-15 16:20:00,65.7,16.8,29.40,SW,217,12.0,26.0,15,0.00,,FEW120,0.00,VWS V14.01,2013-04-15 22:20:00,
2013-04-15 16:25:00,65.4,15.0,29.40,SW,221,18.0,26.0,14,0.00,,FEW120,0.00,VWS V14.01,2013-04-15 22:25:00,
2013-04-15 16:30:00,65.5,15.1,29.39,WSW,250,14.0,17.0,14,0.00,,FEW120,0.00,VWS V14.01,2013-04-15 22:30:00,
2013-04-15 16:35:00,65.4,15.0,29.39,WSW,240,22.0,28.0,14,0.00,,FEW120,0.00,VWS V14.01,2013-04-15 22:35:00,
2013-04-15 16:40:00,65.9,15.4,29.39,WSW,239,15.0,28.0,14,0.00,,FEW120,0.00,VWS V14.01,2013-04-15 22:40:00,
2013-04-15 16:45:00,65.8,15.3,29.39,SW,219,11.0,28.0,14,0.00,,CLR,0.00,VWS V14.01,2013-04-15 22:45:00,
2013-04-15 16:50:00,66.0,15.5,29.39,WSW,249,21.0,28.0,14,0.00,,CLR,0.00,VWS V14.01,2013-04-15 22:50:00,
2013-04-15 16:55:00,66.2,13.9,29.38,SSW,208,11.0,28.0,13,0.00,,CLR,0.00,VWS V14.01,2013-04-15 22:55:00,
2013-04-15 17:00:00,66.5,15.9,29.39,WSW,252,10.0,16.0,14,0.00,,CLR,0.00,VWS V14.01,2013-04-15 23:00:00,
2013-04-15 17:05:00,66.6,15.9,29.39,WSW,256,11.0,24.0,14,0.00,,BKN120,0.00,VWS V14.01,2013-04-15 23:05:00,
2013-04-15 17:10:00,66.8,14.4,29.38,West,262,11.0,26.0,13,0.00,,BKN120,0.00,VWS V14.01,2013-04-15 23:10:00,
2013-04-15 17:15:00,66.8,12.6,29.38,SW,221,19.0,27.0,12,0.00,,BKN120,0.00,VWS V14.01,2013-04-15 23:15:00,
2013-04-15 17:20:00,66.8,14.4,29.38,SW,233,10.0,27.0,13,0.00,,BKN120,0.00,VWS V14.01,2013-04-15 23:20:00,
2013-04-15 17:25:00,67.1,14.6,29.38,SSW,213,11.0,27.0,13,0.00,,BKN120,0.00,VWS V14.01,2013-04-15 23:25:00,
2013-04-15 17:30:00,67.1,14.6,29.38,WSW,243,11.0,27.0,13,0.00,,CLR,0.00,VWS V14.01,2013-04-15 23:30:00,
2013-04-15 17:31:00,67.1,14.6,29.38,West,266,18.0,18.0,13,0.00,,OVC120,0.00,VWS V14.01,2013-04-15 23:31:00,
2013-04-15 17:36:00,65.8,13.6,29.38,West,271,15.0,28.0,13,0.00,,OVC120,0.00,VWS V14.01,2013-04-15 23:36:00,
2013-04-15 17:41:00,65.9,13.7,29.38,West,264,16.0,28.0,13,0.00,,OVC120,0.00,VWS V14.01,2013-04-15 23:41:00,
2013-04-15 17:46:00,66.1,13.9,29.38,WSW,242,19.0,28.0,13,0.00,,SCT120,0.00,VWS V14.01,2013-04-15 23:46:00,
2013-04-15 17:51:00,66.8,10.6,29.38,SW,221,13.0,29.0,11,0.00,,SCT120,0.00,VWS V14.01,2013-04-15 23:51:00,
2013-04-15 17:56:00,67.2,10.9,29.38,West,262,13.0,29.0,11,0.00,,SCT120,0.00,VWS V14.01,2013-04-15 23:56:00,
2013-04-15 18:00:00,67.3,8.9,29.39,West,269,17.0,29.0,10,0.00,,CLR,0.00,VWS V14.01,2013-04-16 00:00:00,
2013-04-15 18:01:00,67.0,8.7,29.39,West,273,18.0,24.0,10,0.00,,CLR,0.00,VWS V14.01,2013-04-16 00:01:00,
2013-04-15 18:06:00,66.7,8.4,29.39,WSW,240,20.0,28.0,10,0.00,,CLR,0.00,VWS V14.01,2013-04-16 00:06:00,
2013-04-15 18:11:00,66.4,8.2,29.39,WNW,284,12.0,29.0,10,0.00,,CLR,0.00,VWS V14.01,2013-04-16 00:11:00,
2013-04-15 18:16:00,66.2,10.2,29.39,West,276,21.0,33.0,11,0.00,,CLR,0.00,VWS V14.01,2013-04-16 00:16:00,
2013-04-15 18:21:00,65.8,9.9,29.40,WSW,245,22.0,33.0,11,0.00,,CLR,0.00,VWS V14.01,2013-04-16 00:21:00,
2013-04-15 18:26:00,65.5,9.6,29.40,West,260,20.0,33.0,11,0.00,,CLR,0.00,VWS V14.01,2013-04-16 00:26:00,
2013-04-15 18:30:00,65.3,11.4,29.40,West,280,10.0,33.0,12,0.00,,CLR,0.00,VWS V14.01,2013-04-16 00:30:00,
2013-04-15 18:31:00,65.3,11.4,29.40,West,262,15.0,19.0,12,0.00,,CLR,0.00,VWS V14.01,2013-04-16 00:31:00,
2013-04-15 18:36:00,65.0,13.0,29.41,West,265,18.0,22.0,13,0.00,,CLR,0.00,VWS V14.01,2013-04-16 00:36:00,
2013-04-15 18:41:00,64.4,14.2,29.41,West,277,13.0,23.0,14,0.00,,CLR,0.00,VWS V14.01,2013-04-16 00:41:00,
2013-04-15 18:46:00,64.0,13.9,29.41,West,270,15.0,23.0,14,0.00,,CLR,0.00,VWS V14.01,2013-04-16 00:46:00,
2013-04-15 18:51:00,63.6,15.1,29.42,WNW,283,15.0,23.0,15,0.00,,CLR,0.00,VWS V14.01,2013-04-16 00:51:00,
2013-04-15 18:56:00,63.2,14.8,29.42,WSW,250,8.0,23.0,15,0.00,,CLR,0.00,VWS V14.01,2013-04-16 00:56:00,
2013-04-15 19:00:00,63.0,14.6,29.42,West,269,14.0,23.0,15,0.00,,CLR,0.00,VWS V14.01,2013-04-16 01:00:00,
2013-04-15 19:01:00,62.8,14.5,29.42,WNW,285,19.0,22.0,15,0.00,,CLR,0.00,VWS V14.01,2013-04-16 01:01:00,
2013-04-15 19:06:00,62.3,15.6,29.42,West,260,14.0,22.0,16,0.00,,CLR,0.00,VWS V14.01,2013-04-16 01:06:00,
2013-04-15 19:11:00,61.8,15.2,29.42,SW,225,9.0,22.0,16,0.00,,CLR,0.00,VWS V14.01,2013-04-16 01:11:00,
2013-04-15 19:17:00,61.3,16.1,29.42,West,263,13.0,22.0,17,0.00,,CLR,0.00,VWS V14.01,2013-04-16 01:17:00,
2013-04-15 19:22:00,60.8,15.7,29.43,West,269,10.0,22.0,17,0.00,,CLR,0.00,VWS V14.01,2013-04-16 01:22:00,
2013-04-15 19:27:00,60.2,16.6,29.43,West,269,7.0,22.0,18,0.00,,CLR,0.00,VWS V14.01,2013-04-16 01:27:00,
2013-04-15 19:30:00,59.9,16.3,29.43,WSW,245,5.0,22.0,18,0.00,,CLR,0.00,VWS V14.01,2013-04-16 01:30:00,
2013-04-15 19:32:00,59.6,16.1,29.43,WSW,239,7.0,10.0,18,0.00,,CLR,0.00,VWS V14.01,2013-04-16 01:32:00,
2013-04-15 19:37:00,59.1,16.9,29.44,WSW,255,9.0,15.0,19,0.00,,CLR,0.00,VWS V14.01,2013-04-16 01:37:00,
2013-04-15 19:42:00,59.1,16.9,29.44,West,274,9.0,15.0,19,0.00,,CLR,0.00,VWS V14.01,2013-04-16 01:42:00,
2013-04-15 19:47:00,58.8,16.7,29.44,WSW,257,7.0,15.0,19,0.00,,CLR,0.00,VWS V14.01,2013-04-16 01:47:00,
2013-04-15 19:52:00,58.2,16.2,29.45,WSW,239,3.0,15.0,19,0.00,,CLR,0.00,VWS V14.01,2013-04-16 01:52:00,
2013-04-15 19:57:00,57.5,16.8,29.45,West,267,4.0,15.0,20,0.00,,CLR,0.00,VWS V14.01,2013-04-16 01:57:00,
2013-04-15 20:00:00,57.3,16.6,29.45,WSW,243,5.0,15.0,20,0.00,,CLR,0.00,VWS V14.01,2013-04-16 02:00:00,
2013-04-15 20:02:00,57.0,16.4,29.45,WSW,246,2.0,5.0,20,0.00,,CLR,0.00,VWS V14.01,2013-04-16 02:02:00,
2013-04-15 20:07:00,56.7,16.1,29.46,SW,235,4.0,9.0,20,0.00,,CLR,0.00,VWS V14.01,2013-04-16 02:07:00,
2013-04-15 20:12:00,56.4,15.9,29.46,SW,232,3.0,9.0,20,0.00,,CLR,0.00,VWS V14.01,2013-04-16 02:12:00,
2013-04-15 20:17:00,55.9,16.5,29.46,SW,232,7.0,9.0,21,0.00,,CLR,0.00,VWS V14.01,2013-04-16 02:17:00,
2013-04-15 20:22:00,55.5,16.2,29.47,SW,235,3.0,9.0,21,0.00,,CLR,0.00,VWS V14.01,2013-04-16 02:22:00,
2013-04-15 20:27:00,55.5,16.2,29.47,SW,226,4.0,9.0,21,0.00,,CLR,0.00,VWS V14.01,2013-04-16 02:27:00,
2013-04-15 20:30:00,55.5,16.2,29.47,SW,235,2.0,9.0,21,0.00,,CLR,0.00,VWS V14.01,2013-04-16 02:30:00,
2013-04-15 20:32:00,55.5,16.2,29.47,SSW,208,7.0,7.0,21,0.00,,CLR,0.00,VWS V14.01,2013-04-16 02:32:00,
2013-04-15 20:37:00,55.4,16.1,29.47,SW,228,4.0,8.0,21,0.00,,CLR,0.00,VWS V14.01,2013-04-16 02:37:00,
2013-04-15 20:42:00,55.4,16.1,29.47,WNW,283,3.0,9.0,21,0.00,,CLR,0.00,VWS V14.01,2013-04-16 02:42:00,
2013-04-15 20:47:00,55.6,16.3,29.48,WSW,239,3.0,11.0,21,0.00,,CLR,0.00,VWS V14.01,2013-04-16 02:47:00,
2013-04-15 20:53:00,55.7,16.4,29.48,WSW,252,3.0,11.0,21,0.00,,CLR,0.00,VWS V14.01,2013-04-16 02:53:00,
2013-04-15 20:58:00,55.5,16.2,29.48,SSW,205,5.0,11.0,21,0.00,,CLR,0.00,VWS V14.01,2013-04-16 02:58:00,
2013-04-15 21:00:00,55.6,16.3,29.49,SW,233,6.0,11.0,21,0.00,,CLR,0.00,VWS V14.01,2013-04-16 03:00:00,
2013-04-15 21:03:00,55.6,16.3,29.49,WNW,291,6.0,9.0,21,0.00,,CLR,0.00,VWS V14.01,2013-04-16 03:03:00,
2013-04-15 21:08:00,55.6,16.3,29.49,SW,222,4.0,9.0,21,0.00,,CLR,0.00,VWS V14.01,2013-04-16 03:08:00,
2013-04-15 21:13:00,55.3,16.0,29.49,SW,218,4.0,9.0,21,0.00,,CLR,0.00,VWS V14.01,2013-04-16 03:13:00,
2013-04-15 21:18:00,55.0,16.9,29.50,WSW,245,3.0,9.0,22,0.00,,CLR,0.00,VWS V14.01,2013-04-16 03:18:00,
2013-04-15 21:23:00,54.7,16.6,29.50,SW,219,4.0,9.0,22,0.00,,CLR,0.00,VWS V14.01,2013-04-16 03:23:00,
2013-04-15 21:28:00,54.5,16.5,29.50,SW,214,4.0,9.0,22,0.00,,CLR,0.00,VWS V14.01,2013-04-16 03:28:00,
2013-04-15 21:30:00,54.5,16.5,29.50,SW,218,5.0,9.0,22,0.00,,CLR,0.00,VWS V14.01,2013-04-16 03:30:00,
2013-04-15 21:33:00,54.3,16.3,29.50,WSW,243,7.0,9.0,22,0.00,,CLR,0.00,VWS V14.01,2013-04-16 03:33:00,
2013-04-15 21:38:00,54.2,16.2,29.50,SW,224,6.0,9.0,22,0.00,,CLR,0.00,VWS V14.01,2013-04-16 03:38:00,
2013-04-15 21:43:00,54.2,16.2,29.51,WSW,245,4.0,9.0,22,0.00,,CLR,0.00,VWS V14.01,2013-04-16 03:43:00,
2013-04-15 21:48:00,54.0,16.0,29.51,WSW,248,3.0,9.0,22,0.00,,CLR,0.00,VWS V14.01,2013-04-16 03:48:00,
2013-04-15 21:53:00,53.7,16.8,29.51,West,262,2.0,9.0,23,0.00,,CLR,0.00,VWS V14.01,2013-04-16 03:53:00,
2013-04-15 21:58:00,53.5,16.6,29.51,WSW,249,1.0,9.0,23,0.00,,CLR,0.00,VWS V14.01,2013-04-16 03:58:00,
2013-04-15 22:00:00,53.3,16.5,29.51,West,268,4.0,6.0,23,0.00,,CLR,0.00,VWS V14.01,2013-04-16 04:00:00,
2013-04-15 22:01:00,53.2,16.4,29.51,SW,218,3.0,6.0,23,0.00,,CLR,0.00,VWS V14.01,2013-04-16 04:01:00,
2013-04-15 22:03:00,53.1,16.3,29.51,WSW,239,3.0,6.0,23,0.00,,CLR,0.00,VWS V14.01,2013-04-16 04:03:00,
2013-04-15 22:05:00,53.0,16.2,29.51,WSW,241,2.0,6.0,23,0.00,,CLR,0.00,VWS V14.01,2013-04-16 04:05:00,
2013-04-15 22:06:00,52.9,16.1,29.51,SW,232,2.0,6.0,23,0.00,,CLR,0.00,VWS V14.01,2013-04-16 04:06:00,
2013-04-15 22:12:00,52.6,15.9,29.51,SW,214,1.0,6.0,23,0.00,,CLR,0.00,VWS V14.01,2013-04-16 04:12:00,
2013-04-15 22:17:00,52.3,16.6,29.52,WSW,252,2.0,6.0,24,0.00,,CLR,0.00,VWS V14.01,2013-04-16 04:17:00,
2013-04-15 22:22:00,52.0,16.4,29.52,SW,226,8.0,8.0,24,0.00,,CLR,0.00,VWS V14.01,2013-04-16 04:22:00,
2013-04-15 22:27:00,52.2,16.5,29.52,SW,214,1.0,8.0,24,0.00,,CLR,0.00,VWS V14.01,2013-04-16 04:27:00,
2013-04-15 22:30:00,52.1,16.4,29.52,SW,231,1.0,8.0,24,0.00,,CLR,0.00,VWS V14.01,2013-04-16 04:30:00,
2013-04-15 22:32:00,52.0,16.4,29.52,SW,231,1.0,3.0,24,0.00,,CLR,0.00,VWS V14.01,2013-04-16 04:32:00,
2013-04-15 22:37:00,52.0,15.4,29.52,WSW,253,4.0,7.0,23,0.00,,CLR,0.00,VWS V14.01,2013-04-16 04:37:00,
2013-04-15 22:42:00,51.8,15.2,29.52,West,263,3.0,7.0,23,0.00,,CLR,0.00,VWS V14.01,2013-04-16 04:42:00,
2013-04-15 22:47:00,51.6,14.0,29.52,WSW,256,3.0,7.0,22,0.00,,CLR,0.00,VWS V14.01,2013-04-16 04:47:00,
2013-04-15 22:52:00,51.4,13.9,29.52,WNW,293,1.0,7.0,22,0.00,,CLR,0.00,VWS V14.01,2013-04-16 04:52:00,
2013-04-15 22:57:00,50.6,14.2,29.52,NW,309,0.0,7.0,23,0.00,,CLR,0.00,VWS V14.01,2013-04-16 04:57:00,
2013-04-15 23:00:00,50.3,13.9,29.52,WNW,298,3.0,7.0,23,0.00,,CLR,0.00,VWS V14.01,2013-04-16 05:00:00,
2013-04-15 23:02:00,50.2,13.9,29.52,WNW,295,1.0,3.0,23,0.00,,CLR,0.00,VWS V14.01,2013-04-16 05:02:00,
2013-04-15 23:07:00,49.5,14.2,29.52,North,5,0.0,3.0,24,0.00,,CLR,0.00,VWS V14.01,2013-04-16 05:07:00,
2013-04-15 23:12:00,49.0,13.8,29.52,West,280,1.0,5.0,24,0.00,,CLR,0.00,VWS V14.01,2013-04-16 05:12:00,
2013-04-15 23:17:00,48.9,14.6,29.52,West,270,1.0,5.0,25,0.00,,CLR,0.00,VWS V14.01,2013-04-16 05:17:00,
2013-04-15 23:22:00,50.4,14.0,29.52,West,267,8.0,13.0,23,0.00,,CLR,0.00,VWS V14.01,2013-04-16 05:22:00,
2013-04-15 23:27:00,52.4,12.5,29.52,WSW,242,14.0,15.0,20,0.00,,CLR,0.00,VWS V14.01,2013-04-16 05:27:00,
2013-04-15 23:30:00,52.9,12.9,29.52,WSW,249,13.0,16.0,20,0.00,,CLR,0.00,VWS V14.01,2013-04-16 05:30:00,
2013-04-15 23:32:00,53.3,13.3,29.52,West,259,7.0,13.0,20,0.00,,CLR,0.00,VWS V14.01,2013-04-16 05:32:00,
2013-04-15 23:37:00,52.8,12.9,29.51,WNW,296,5.0,13.0,20,0.00,,CLR,0.00,VWS V14.01,2013-04-16 05:37:00,
2013-04-15 23:42:00,51.6,14.0,29.52,North,6,0.0,13.0,22,0.00,,CLR,0.00,VWS V14.01,2013-04-16 05:42:00,
2013-04-15 23:48:00,49.4,13.2,29.52,ENE,63,1.0,13.0,23,0.00,,CLR,0.00,VWS V14.01,2013-04-16 05:48:00,
2013-04-15 23:53:00,49.1,12.9,29.52,West,277,3.0,13.0,23,0.00,,CLR,0.00,VWS V14.01,2013-04-16 05:53:00,
2013-04-15 23:58:00,51.0,12.5,29.52,WSW,245,6.0,13.0,21,0.00,,CLR,0.00,VWS V14.01,2013-04-16 05:58:00,